Ormesby Saint Margaret, United Kingdom
Current Conditions -  °F | °C
As of 5:20 PM on Friday 28 Nov 2014 (Local Time) from EGSD Reporting Station
Scattered Clouds Scattered Clouds  
Wind Chill: 54°   Ceiling: Unl
Heat Index: 54°   Visibility: 5mi
Dew Point: 50°   Wind: 12mph
Humidity: 88%   Direction: 100°E
Pressure: 29.74"   Gusts: NA
Location:  52.67°N, 1.7°E
Report Text: EGSD 281720Z 10010KT 8000 SCT018 12/10 Q1007
Loading
Personal Weather Stations






























Interactive Weather Map New forecast layout! Learn more

10-Day Weather Forecast

Advertisements
Track Severe Weather on mobile